Time;durP1;ratioP1;P1;durP2;ratioP2;P2;SDS_P1;SDS_P2;PMS_P1;PMS_P2;Temp;Humidity;BMP_temperature;BMP_pressure;BME280_temperature;BME280_humidity;BME280_pressure;Samples;Min_cycle;Max_cycle;Signal;HPM_P1;HPM_P2
2022/07/03 00:01:56;;;;;;;3.07;2.17;;;18.90;99.90;;;;;;5031595;28;20207;-60
2022/07/03 00:04:23;;;;;;;2.60;1.83;;;18.80;99.90;;;;;;5031682;28;20210;-58
2022/07/03 00:06:50;;;;;;;5.23;2.17;;;18.80;99.90;;;;;;5031677;28;20284;-61
2022/07/03 00:09:18;;;;;;;2.37;1.90;;;18.70;99.90;;;;;;5031976;28;20205;-57
2022/07/03 00:11:45;;;;;;;4.33;2.03;;;18.70;99.90;;;;;;5031604;28;20210;-58
2022/07/03 00:14:13;;;;;;;2.83;2.33;;;18.50;99.90;;;;;;5031671;28;20672;-58
2022/07/03 00:16:40;;;;;;;6.47;2.40;;;18.40;99.90;;;;;;5030765;28;20272;-58
2022/07/03 00:19:07;;;;;;;3.23;2.00;;;18.30;99.90;;;;;;5031843;28;20210;-60
2022/07/03 00:21:41;;;;;;;3.70;2.10;;;18.30;99.90;;;;;;5031776;28;20206;-55
2022/07/03 00:24:10;;;;;;;6.10;2.00;;;18.20;99.90;;;;;;5031804;28;20202;-59
2022/07/03 00:26:41;;;;;;;3.17;1.87;;;18.20;99.90;;;;;;5034806;28;20241;-55
2022/07/03 00:29:09;;;;;;;3.80;2.00;;;18.10;99.90;;;;;;5034236;28;20268;-58
2022/07/03 00:31:37;;;;;;;3.00;2.00;;;18.00;99.90;;;;;;5034180;28;20268;-54
2022/07/03 00:34:09;;;;;;;2.97;1.90;;;17.90;99.90;;;;;;5034407;28;20206;-58
2022/07/03 00:36:38;;;;;;;4.97;2.10;;;17.90;99.90;;;;;;5033506;28;20252;-58
2022/07/03 00:39:06;;;;;;;3.63;2.00;;;17.80;99.90;;;;;;5033960;28;20214;-60
2022/07/03 00:41:34;;;;;;;3.83;2.10;;;17.90;99.90;;;;;;5033525;28;20264;-58
2022/07/03 00:44:01;;;;;;;4.70;2.60;;;17.90;99.90;;;;;;5034177;28;20217;-58
2022/07/03 00:46:29;;;;;;;26.87;10.83;;;17.80;99.90;;;;;;5033754;28;20210;-58
2022/07/03 00:48:59;;;;;;;6.70;2.50;;;17.80;99.90;;;;;;5033840;28;20202;-60
2022/07/03 00:51:27;;;;;;;2.03;1.83;;;17.80;99.90;;;;;;5033882;28;20206;-60
2022/07/03 00:53:55;;;;;;;3.63;1.90;;;17.80;99.90;;;;;;5033814;28;20264;-58
2022/07/03 00:56:25;;;;;;;5.77;1.80;;;17.90;99.90;;;;;;5033096;28;20669;-58
2022/07/03 00:58:55;;;;;;;4.63;2.37;;;17.90;99.90;;;;;;5033812;28;20619;-59
2022/07/03 01:01:24;;;;;;;7.87;3.00;;;17.90;99.90;;;;;;5033894;28;20210;-60
2022/07/03 01:04:14;;;;;;;4.97;2.33;;;17.90;99.90;;;;;;5033635;28;20206;-61
2022/07/03 01:06:51;;;;;;;6.87;3.77;;;17.90;99.90;;;;;;5032707;28;20226;-60
2022/07/03 01:09:26;;;;;;;5.27;2.80;;;17.90;99.90;;;;;;5033760;28;20213;-58
2022/07/03 01:12:00;;;;;;;6.83;2.57;;;17.90;99.90;;;;;;5033678;28;20893;-57
2022/07/03 01:14:36;;;;;;;3.67;2.30;;;17.80;99.90;;;;;;5033487;28;20563;-60
2022/07/03 01:17:05;;;;;;;3.93;2.20;;;17.80;99.90;;;;;;5033044;28;20280;-57
2022/07/03 01:19:42;;;;;;;6.70;2.57;;;17.80;99.90;;;;;;5033613;28;20304;-59
2022/07/03 01:22:29;;;;;;;4.17;2.20;;;17.70;99.90;;;;;;5033623;28;20241;-60
2022/07/03 01:25:15;;;;;;;5.43;2.10;;;17.70;99.90;;;;;;5033229;28;20268;-59
2022/07/03 01:27:53;;;;;;;4.97;1.97;;;17.60;99.90;;;;;;4997443;28;1032442;-58
2022/07/03 01:30:22;;;;;;;5.57;2.33;;;17.60;99.90;;;;;;5034310;28;20673;-59
2022/07/03 01:32:56;;;;;;;4.10;1.97;;;17.50;99.90;;;;;;5034647;28;20214;-58
2022/07/03 01:35:33;;;;;;;7.43;2.53;;;17.50;99.90;;;;;;5033999;28;20206;-58
2022/07/03 01:38:04;;;;;;;3.77;2.40;;;17.40;99.90;;;;;;5033777;28;20229;-58
2022/07/03 01:40:33;;;;;;;6.13;2.20;;;17.30;99.90;;;;;;5034007;28;20573;-60
2022/07/03 01:43:04;;;;;;;3.10;2.10;;;17.20;99.90;;;;;;5034393;28;20213;-58
2022/07/03 01:45:33;;;;;;;5.33;2.17;;;17.20;99.90;;;;;;5034337;28;20264;-60
2022/07/03 01:48:01;;;;;;;4.20;2.23;;;17.10;99.90;;;;;;5033937;28;20222;-58
2022/07/03 01:50:30;;;;;;;3.93;2.50;;;17.00;99.90;;;;;;5033747;28;20203;-60
2022/07/03 01:53:01;;;;;;;2.73;2.00;;;17.00;99.90;;;;;;5034284;28;20209;-57
2022/07/03 01:55:31;;;;;;;3.70;2.30;;;16.90;99.90;;;;;;5034336;28;20660;-58
2022/07/03 01:57:58;;;;;;;3.23;2.30;;;16.90;99.90;;;;;;5033369;28;20230;-56
2022/07/03 02:00:26;;;;;;;3.47;2.20;;;16.80;99.90;;;;;;5034078;28;20268;-55
2022/07/03 02:02:58;;;;;;;3.63;2.10;;;16.80;99.90;;;;;;5033701;28;20222;-57
2022/07/03 02:05:38;;;;;;;4.33;2.17;;;16.70;99.90;;;;;;5034174;28;20272;-53
2022/07/03 02:08:11;;;;;;;3.17;2.47;;;16.60;99.90;;;;;;5033538;28;20307;-57
2022/07/03 02:10:45;;;;;;;3.33;2.50;;;16.40;99.90;;;;;;5034246;28;20264;-57
2022/07/03 02:13:17;;;;;;;7.17;2.90;;;16.40;1.00;;;;;;5033675;28;20356;-57
2022/07/03 02:15:46;;;;;;;5.27;2.30;;;16.40;1.00;;;;;;5034341;28;20256;-60
2022/07/03 02:18:26;;;;;;;3.20;1.97;;;16.30;1.00;;;;;;5034090;28;20693;-60
2022/07/03 02:21:02;;;;;;;3.93;2.20;;;16.40;1.00;;;;;;5033875;28;20233;-56
2022/07/03 02:23:32;;;;;;;3.77;2.17;;;16.50;1.00;;;;;;5033487;28;20206;-58
2022/07/03 02:26:04;;;;;;;3.90;2.40;;;16.50;1.00;;;;;;5033450;28;20210;-52
2022/07/03 02:28:55;;;;;;;4.80;2.20;;;16.60;1.00;;;;;;5033110;28;20739;-55
2022/07/03 02:31:25;;;;;;;4.27;2.37;;;16.60;1.00;;;;;;5033467;28;20673;-57
2022/07/03 02:33:57;;;;;;;2.73;2.30;;;16.60;1.00;;;;;;5033297;28;20293;-54
2022/07/03 02:36:27;;;;;;;3.60;2.23;;;16.70;1.00;;;;;;5032687;28;20214;-57
2022/07/03 02:38:57;;;;;;;4.17;2.10;;;16.60;1.00;;;;;;5033016;28;20708;-57
2022/07/03 02:41:30;;;;;;;4.23;2.30;;;16.60;1.00;;;;;;5033319;28;20215;-59
2022/07/03 02:44:03;;;;;;;3.50;2.30;;;16.60;1.00;;;;;;5032996;28;20848;-58
2022/07/03 02:46:50;;;;;;;5.53;2.40;;;16.60;1.00;;;;;;5032842;28;20233;-58
2022/07/03 02:49:25;;;;;;;3.50;2.93;;;16.50;1.00;;;;;;5032622;28;20271;-59
2022/07/03 02:52:03;;;;;;;4.93;2.30;;;16.50;1.00;;;;;;5033165;28;20631;-61
2022/07/03 02:54:36;;;;;;;2.83;2.10;;;16.50;1.00;;;;;;5032881;28;20741;-60
2022/07/03 02:57:07;;;;;;;4.17;2.70;;;16.50;1.00;;;;;;5032267;28;20230;-59
2022/07/03 02:59:52;;;;;;;4.93;2.60;;;16.50;1.00;;;;;;5033031;28;20216;-57
2022/07/03 03:02:27;;;;;;;4.90;2.60;;;16.50;1.00;;;;;;5032951;28;20202;-58
2022/07/03 03:04:59;;;;;;;2.40;2.07;;;16.40;1.00;;;;;;5032724;28;20248;-60
2022/07/03 03:07:33;;;;;;;5.03;2.63;;;16.40;1.00;;;;;;5032189;28;20281;-59
2022/07/03 03:10:00;;;;;;;3.90;2.33;;;16.30;1.00;;;;;;5032799;28;20209;-58
2022/07/03 03:12:31;;;;;;;2.73;2.10;;;16.30;1.00;;;;;;5032432;28;20206;-60
2022/07/03 03:15:03;;;;;;;4.37;2.30;;;16.30;1.00;;;;;;5032702;28;20779;-59
2022/07/03 03:17:45;;;;;;;3.80;2.13;;;16.30;1.00;;;;;;5032179;28;20333;-58
2022/07/03 03:20:16;;;;;;;3.30;2.13;;;16.30;1.00;;;;;;5033026;28;20210;-57
2022/07/03 03:23:00;;;;;;;4.23;2.20;;;16.20;1.00;;;;;;5032567;28;20681;-58
2022/07/03 03:25:27;;;;;;;3.10;2.07;;;16.20;1.00;;;;;;5033222;28;20217;-60
2022/07/03 03:27:54;;;;;;;3.93;2.00;;;16.10;1.00;;;;;;5032248;28;20230;-55
2022/07/03 03:30:21;;;;;;;2.10;1.90;;;16.00;1.00;;;;;;5032969;28;20261;-57
2022/07/03 03:32:49;;;;;;;2.67;2.03;;;16.00;1.00;;;;;;5032669;28;20206;-58
2022/07/03 03:35:16;;;;;;;5.10;2.43;;;16.00;1.00;;;;;;5032129;28;20272;-60
2022/07/03 03:37:42;;;;;;;3.23;2.00;;;16.00;7.70;;;;;;5031709;28;20232;-58
2022/07/03 03:40:11;;;;;;;3.07;2.30;;;16.00;7.60;;;;;;5032286;28;20210;-61
2022/07/03 03:42:38;;;;;;;3.17;2.10;;;15.90;7.60;;;;;;5031933;28;20842;-60
2022/07/03 03:45:06;;;;;;;3.63;1.90;;;15.90;20.60;;;;;;5031896;28;20210;-58
2022/07/03 03:47:33;;;;;;;4.13;2.07;;;16.00;19.20;;;;;;5031744;28;20658;-58
2022/07/03 03:50:02;;;;;;;3.40;1.90;;;16.00;7.70;;;;;;5031895;28;20210;-58
2022/07/03 03:52:29;;;;;;;2.57;2.10;;;16.10;1.00;;;;;;5031888;28;20210;-57
2022/07/03 03:54:56;;;;;;;3.73;1.90;;;16.10;1.00;;;;;;5031771;28;20256;-61
2022/07/03 03:57:24;;;;;;;5.17;2.00;;;16.10;1.00;;;;;;5031291;28;20226;-60
2022/07/03 03:59:51;;;;;;;3.33;1.87;;;16.20;1.00;;;;;;5031543;28;20736;-60
2022/07/03 04:02:19;;;;;;;4.80;2.20;;;16.20;1.00;;;;;;5032001;28;20207;-59
2022/07/03 04:04:46;;;;;;;3.40;2.10;;;16.30;1.00;;;;;;5032030;28;20627;-60
2022/07/03 04:07:14;;;;;;;2.67;2.00;;;16.30;1.00;;;;;;5031278;28;20348;-59
2022/07/03 04:09:41;;;;;;;2.47;1.73;;;16.40;1.00;;;;;;5031496;28;20217;-60
2022/07/03 04:12:08;;;;;;;5.23;2.43;;;16.50;1.00;;;;;;5031712;28;20206;-60
2022/07/03 04:14:35;;;;;;;2.80;1.73;;;16.60;1.00;;;;;;5031767;28;20203;-60
2022/07/03 04:17:02;;;;;;;4.20;2.00;;;16.70;1.00;;;;;;5031307;28;20716;-58
2022/07/03 04:19:29;;;;;;;4.57;1.90;;;16.70;1.00;;;;;;5031568;28;20230;-60
2022/07/03 04:21:55;;;;;;;3.10;2.17;;;16.70;1.00;;;;;;5031693;28;20206;-60
2022/07/03 04:24:24;;;;;;;3.33;1.77;;;16.80;1.00;;;;;;5031754;28;20263;-61
2022/07/03 04:26:51;;;;;;;4.10;1.97;;;16.90;1.00;;;;;;5030722;28;20226;-61
2022/07/03 04:29:18;;;;;;;4.33;1.80;;;17.00;1.00;;;;;;5031822;28;20202;-58
2022/07/03 04:31:44;;;;;;;2.10;1.70;;;17.10;1.00;;;;;;5031674;28;20594;-57
2022/07/03 04:34:12;;;;;;;2.50;1.90;;;17.10;1.00;;;;;;5031396;28;20743;-59
2022/07/03 04:36:38;;;;;;;2.50;1.93;;;17.20;1.00;;;;;;5030926;28;20206;-59
2022/07/03 04:39:05;;;;;;;2.17;1.77;;;17.40;1.00;;;;;;5031186;28;20222;-58
2022/07/03 04:41:33;;;;;;;2.30;1.63;;;17.50;1.00;;;;;;5031565;28;20264;-59
2022/07/03 04:43:59;;;;;;;4.03;1.80;;;17.60;1.00;;;;;;5031736;28;20211;-58
2022/07/03 04:46:26;;;;;;;3.53;1.60;;;17.70;1.00;;;;;;5031027;28;20210;-58
2022/07/03 04:48:53;;;;;;;4.53;1.67;;;17.90;99.90;;;;;;5031463;28;20202;-58
2022/07/03 04:51:19;;;;;;;2.03;1.80;;;17.90;99.90;;;;;;5031289;28;20261;-58
2022/07/03 04:53:46;;;;;;;3.70;1.80;;;18.00;99.90;;;;;;5031277;28;20264;-58
2022/07/03 04:56:13;;;;;;;2.20;1.97;;;18.10;99.90;;;;;;5031221;28;20210;-60
2022/07/03 04:58:41;;;;;;;4.27;1.50;;;18.10;99.90;;;;;;5031080;28;20230;-60
2022/07/03 05:01:07;;;;;;;2.60;1.83;;;18.20;99.90;;;;;;5031530;28;20256;-60
2022/07/03 05:03:34;;;;;;;3.60;1.90;;;18.30;99.90;;;;;;5031257;28;20220;-60
2022/07/03 05:06:01;;;;;;;3.87;1.70;;;18.30;99.90;;;;;;5030983;28;20245;-58
2022/07/03 05:08:27;;;;;;;2.93;1.70;;;18.40;99.90;;;;;;5030891;28;20248;-58
2022/07/03 05:10:54;;;;;;;2.33;1.40;;;18.50;99.90;;;;;;5032310;28;20292;-58
2022/07/03 05:13:21;;;;;;;3.43;1.67;;;18.60;99.90;;;;;;5034993;28;20218;-60
2022/07/03 05:15:49;;;;;;;2.70;1.60;;;18.60;99.90;;;;;;5035056;28;20210;-61
2022/07/03 05:18:15;;;;;;;3.37;1.73;;;18.60;99.90;;;;;;5034412;28;20260;-60
2022/07/03 05:20:42;;;;;;;2.93;1.70;;;18.70;99.90;;;;;;5034609;28;20206;-58
2022/07/03 05:23:09;;;;;;;2.63;1.50;;;18.70;99.90;;;;;;5034647;28;20213;-58
2022/07/03 05:25:35;;;;;;;3.27;1.80;;;18.70;99.90;;;;;;5034720;28;20214;-60
2022/07/03 05:28:02;;;;;;;3.30;1.40;;;18.70;99.90;;;;;;5034211;28;20238;-58
2022/07/03 05:30:29;;;;;;;5.03;2.07;;;18.60;99.90;;;;;;5034460;28;20202;-58
2022/07/03 05:32:57;;;;;;;4.10;1.60;;;18.50;99.90;;;;;;5034497;28;20210;-61
2022/07/03 05:35:24;;;;;;;2.63;2.00;;;18.30;99.90;;;;;;5034140;28;20206;-59
2022/07/03 05:37:51;;;;;;;3.70;2.10;;;18.40;99.90;;;;;;5034015;28;20230;-61
2022/07/03 05:40:18;;;;;;;2.53;1.90;;;18.40;99.90;;;;;;5034268;28;20368;-58
2022/07/03 05:42:44;;;;;;;3.47;2.10;;;18.40;99.90;;;;;;5034517;28;20210;-60
2022/07/03 05:45:11;;;;;;;4.40;2.27;;;18.30;99.90;;;;;;5034256;28;20272;-58
2022/07/03 05:47:38;;;;;;;4.57;2.37;;;18.30;99.90;;;;;;5033820;28;20233;-57
2022/07/03 05:50:07;;;;;;;3.47;2.10;;;18.20;99.90;;;;;;5034056;28;20239;-58
2022/07/03 05:52:34;;;;;;;2.90;2.30;;;18.20;99.90;;;;;;5034509;28;20631;-60
2022/07/03 05:55:00;;;;;;;4.37;2.53;;;18.30;99.90;;;;;;5034482;28;20206;-60
2022/07/03 05:57:27;;;;;;;2.90;2.40;;;18.40;99.90;;;;;;5033943;28;20585;-59
2022/07/03 05:59:54;;;;;;;5.57;2.97;;;18.40;99.90;;;;;;5033888;28;20276;-58
2022/07/03 06:02:20;;;;;;;3.77;2.33;;;18.50;99.90;;;;;;5033663;28;20242;-60
2022/07/03 06:04:47;;;;;;;6.90;2.53;;;18.60;99.90;;;;;;5034171;28;20218;-58
2022/07/03 06:07:16;;;;;;;5.07;2.30;;;18.70;99.90;;;;;;5033432;28;20227;-56
2022/07/03 06:09:43;;;;;;;5.93;2.20;;;18.80;99.90;;;;;;5033874;28;20285;-57
2022/07/03 06:12:10;;;;;;;5.47;2.00;;;19.00;99.90;;;;;;5033590;28;20260;-59
2022/07/03 06:14:37;;;;;;;5.10;2.70;;;19.00;99.90;;;;;;5033723;28;20206;-60
2022/07/03 06:17:04;;;;;;;6.13;2.67;;;19.10;99.90;;;;;;5033000;28;20230;-61
2022/07/03 06:19:30;;;;;;;5.80;2.70;;;19.20;99.90;;;;;;5033821;28;20230;-57
2022/07/03 06:21:57;;;;;;;4.40;2.50;;;19.20;99.90;;;;;;5033156;28;20219;-60
2022/07/03 06:24:25;;;;;;;5.67;2.50;;;19.30;99.90;;;;;;5033197;28;20252;-60
2022/07/03 06:26:52;;;;;;;5.83;2.47;;;19.40;99.90;;;;;;5032857;28;20226;-60
2022/07/03 06:29:18;;;;;;;2.90;2.23;;;19.50;99.90;;;;;;5033443;28;20203;-54
2022/07/03 06:31:45;;;;;;;4.90;2.83;;;19.60;99.90;;;;;;5033118;28;20214;-58
2022/07/03 06:34:12;;;;;;;5.47;2.70;;;19.60;99.90;;;;;;5033347;28;20202;-57
2022/07/03 06:36:38;;;;;;;6.73;3.10;;;19.70;99.90;;;;;;5032940;28;20289;-56
2022/07/03 06:39:05;;;;;;;3.97;2.57;;;19.80;99.90;;;;;;5032979;28;20230;-57
2022/07/03 06:41:33;;;;;;;4.17;2.63;;;19.90;99.90;;;;;;5033326;28;20619;-57
2022/07/03 06:43:59;;;;;;;3.80;2.73;;;20.00;99.90;;;;;;5032925;28;20210;-59
2022/07/03 06:46:26;;;;;;;5.67;2.83;;;20.00;99.90;;;;;;5032540;28;20202;-58
2022/07/03 06:48:53;;;;;;;7.27;2.70;;;20.20;99.90;;;;;;5033095;28;20268;-57
2022/07/03 06:51:19;;;;;;;7.33;3.20;;;20.30;99.90;;;;;;5032744;28;20738;-58
2022/07/03 06:53:46;;;;;;;5.07;2.63;;;20.40;99.90;;;;;;5033011;28;20276;-57
2022/07/03 06:56:13;;;;;;;5.30;2.67;;;20.60;99.90;;;;;;5032750;28;20260;-58
2022/07/03 06:58:41;;;;;;;5.57;2.80;;;20.70;99.90;;;;;;5032483;28;20288;-58
2022/07/03 07:01:07;;;;;;;5.47;3.00;;;20.90;99.90;;;;;;5032898;28;20870;-57
2022/07/03 07:03:34;;;;;;;5.23;2.90;;;21.00;99.90;;;;;;5032783;28;20680;-60
2022/07/03 07:06:01;;;;;;;5.10;2.97;;;21.10;99.90;;;;;;5032349;28;20213;-61
2022/07/03 07:08:27;;;;;;;6.97;2.90;;;21.20;99.90;;;;;;5032729;28;20226;-61
2022/07/03 07:10:54;;;;;;;5.13;3.13;;;21.20;99.90;;;;;;5032593;28;20264;-61
2022/07/03 07:13:21;;;;;;;5.60;2.50;;;21.20;99.90;;;;;;5032690;28;20738;-59
2022/07/03 07:15:49;;;;;;;4.53;2.77;;;21.30;99.90;;;;;;5032863;28;20210;-62
2022/07/03 07:18:15;;;;;;;4.93;3.10;;;21.50;99.90;;;;;;5032490;28;20223;-61
2022/07/03 07:20:42;;;;;;;5.37;2.70;;;21.40;99.90;;;;;;5032462;28;20210;-62
2022/07/03 07:23:09;;;;;;;8.40;3.10;;;21.70;99.90;;;;;;5032420;28;20213;-61
2022/07/03 07:25:36;;;;;;;6.70;2.97;;;21.80;99.90;;;;;;5032269;28;20213;-62
2022/07/03 07:28:03;;;;;;;6.40;2.43;;;21.90;99.90;;;;;;5031791;28;20241;-59
2022/07/03 07:30:30;;;;;;;6.20;2.73;;;22.00;99.90;;;;;;5032355;28;20252;-57
2022/07/03 07:32:58;;;;;;;7.13;3.30;;;22.20;99.90;;;;;;5032567;28;20206;-59
2022/07/03 07:35:25;;;;;;;5.87;2.53;;;22.40;99.90;;;;;;5031921;28;20206;-62
2022/07/03 07:37:51;;;;;;;4.83;2.70;;;22.40;99.90;;;;;;5031575;28;20230;-60
2022/07/03 07:40:18;;;;;;;4.87;2.87;;;22.70;99.90;;;;;;5031872;28;20234;-59
2022/07/03 07:42:45;;;;;;;3.97;2.80;;;22.50;99.90;;;;;;5032080;28;20210;-61
2022/07/03 07:45:11;;;;;;;7.07;3.00;;;22.50;99.90;;;;;;5032116;28;20751;-62
2022/07/03 07:47:38;;;;;;;6.70;2.90;;;22.60;99.90;;;;;;5031661;28;20364;-60
2022/07/03 07:50:08;;;;;;;6.63;2.93;;;22.90;99.90;;;;;;5031969;28;20588;-62
2022/07/03 07:52:35;;;;;;;7.20;2.67;;;22.80;99.90;;;;;;5031805;28;20284;-62
2022/07/03 07:55:01;;;;;;;6.50;2.73;;;23.10;99.90;;;;;;5031789;28;20205;-62
2022/07/03 07:57:34;;;;;;;7.80;3.00;;;23.20;99.90;;;;;;5031404;28;20365;-62
2022/07/03 08:00:06;;;;;;;6.37;3.10;;;23.50;99.90;;;;;;5031953;28;20273;-62
2022/07/03 08:05:36;;;;;;;5.57;2.77;;;23.80;99.90;;;;;;5031895;28;20209;-62
2022/07/03 08:08:03;;;;;;;5.90;2.93;;;23.80;99.90;;;;;;5031432;28;20657;-61
2022/07/03 08:10:30;;;;;;;5.73;3.23;;;23.90;99.90;;;;;;5031941;28;20206;-62
2022/07/03 08:12:56;;;;;;;5.53;3.03;;;23.90;99.90;;;;;;5031672;28;20240;-62
2022/07/03 08:15:23;;;;;;;4.17;2.50;;;23.90;99.90;;;;;;5031771;28;20677;-61
2022/07/03 08:17:50;;;;;;;4.13;2.50;;;23.90;99.90;;;;;;5031239;28;20230;-62
2022/07/03 08:20:17;;;;;;;6.40;2.47;;;24.00;99.90;;;;;;5031624;28;20234;-62
2022/07/03 08:22:44;;;;;;;4.47;2.87;;;24.20;99.90;;;;;;5032015;28;20206;-62
2022/07/03 08:25:11;;;;;;;7.77;3.23;;;24.30;99.90;;;;;;5031675;28;20268;-61
2022/07/03 08:27:38;;;;;;;8.47;2.70;;;24.20;99.90;;;;;;5031113;28;20284;-62
2022/07/03 08:30:06;;;;;;;5.63;2.93;;;24.30;99.90;;;;;;5031582;28;20206;-62
2022/07/03 08:32:33;;;;;;;4.27;2.50;;;24.10;99.90;;;;;;5031621;28;20206;-62
2022/07/03 08:34:59;;;;;;;6.93;3.40;;;24.00;99.90;;;;;;5031512;28;20256;-60
2022/07/03 08:37:28;;;;;;;4.03;2.40;;;24.20;99.90;;;;;;5031404;28;20234;-62
2022/07/03 08:39:54;;;;;;;5.07;2.93;;;24.30;99.90;;;;;;5031271;28;20226;-63
2022/07/03 08:42:24;;;;;;;3.93;2.70;;;24.50;99.90;;;;;;5031338;28;20681;-62
2022/07/03 08:44:52;;;;;;;5.33;2.70;;;24.40;99.90;;;;;;5031265;28;20238;-62
2022/07/03 08:47:19;;;;;;;6.63;3.00;;;24.60;99.90;;;;;;5034258;28;20716;-62
2022/07/03 08:49:49;;;;;;;3.83;2.97;;;24.00;99.90;;;;;;5035516;28;20202;-62
2022/07/03 08:52:16;;;;;;;4.43;2.93;;;24.20;99.90;;;;;;5035136;28;20248;-61
2022/07/03 08:54:44;;;;;;;5.47;3.30;;;23.90;99.90;;;;;;5035371;28;20219;-62
2022/07/03 08:57:12;;;;;;;4.63;2.50;;;23.90;99.90;;;;;;5034453;28;20309;-62
2022/07/03 08:59:40;;;;;;;4.83;2.20;;;24.20;99.90;;;;;;5034969;28;20223;-63
2022/07/03 09:02:07;;;;;;;7.00;3.23;;;24.30;99.90;;;;;;5035111;28;20245;-62
2022/07/03 09:04:34;;;;;;;7.00;3.47;;;24.00;99.90;;;;;;5035094;28;20250;-62
2022/07/03 09:07:01;;;;;;;5.20;2.60;;;24.10;99.90;;;;;;5034532;28;20226;-62
2022/07/03 09:09:28;;;;;;;4.77;2.87;;;24.00;99.90;;;;;;5035042;28;20206;-62
2022/07/03 09:11:56;;;;;;;5.37;3.00;;;24.20;99.90;;;;;;5034678;28;20206;-62
2022/07/03 09:14:23;;;;;;;4.93;3.07;;;24.50;99.90;;;;;;5034804;28;20680;-63
2022/07/03 09:16:50;;;;;;;7.37;3.37;;;24.60;99.90;;;;;;5034639;28;20280;-63
2022/07/03 09:19:42;;;;;;;4.67;2.90;;;24.60;99.90;;;;;;5034879;28;20226;-64
2022/07/03 09:22:21;;;;;;;7.27;2.90;;;24.70;99.90;;;;;;5034681;28;20747;-63
2022/07/03 09:24:48;;;;;;;5.73;2.70;;;24.70;99.90;;;;;;5035192;28;20273;-63
2022/07/03 09:27:19;;;;;;;5.03;3.00;;;24.80;99.90;;;;;;5034137;28;20298;-63
2022/07/03 09:29:58;;;;;;;5.73;2.63;;;24.60;99.90;;;;;;5034574;28;20700;-63
2022/07/03 09:32:25;;;;;;;5.27;3.30;;;24.80;99.90;;;;;;5034531;28;20207;-63
2022/07/03 09:35:19;;;;;;;8.33;2.67;;;25.00;99.90;;;;;;5034238;28;20210;-64
2022/07/03 09:37:51;;;;;;;3.13;2.20;;;25.00;99.90;;;;;;5034170;28;20226;-63
2022/07/03 09:40:19;;;;;;;4.43;2.10;;;25.10;99.90;;;;;;5034356;28;20222;-63
2022/07/03 09:43:00;;;;;;;3.07;2.40;;;25.20;99.90;;;;;;5034681;28;20268;-63
2022/07/03 09:45:27;;;;;;;4.90;2.60;;;25.40;99.90;;;;;;5034062;28;20210;-63
2022/07/03 09:47:54;;;;;;;4.97;2.20;;;25.50;99.90;;;;;;5033940;28;20287;-63
2022/07/03 09:50:21;;;;;;;3.50;1.90;;;25.40;99.90;;;;;;5033958;28;20673;-62
2022/07/03 09:52:48;;;;;;;4.43;2.60;;;25.60;99.90;;;;;;5034246;28;20264;-63
2022/07/03 09:55:18;;;;;;;5.30;2.83;;;25.50;99.90;;;;;;5034119;28;20211;-63
2022/07/03 09:57:46;;;;;;;5.67;2.60;;;25.50;99.90;;;;;;5033406;28;20230;-63
2022/07/03 10:00:17;;;;;;;6.00;2.30;;;25.40;99.90;;;;;;5033777;28;20704;-63
2022/07/03 10:02:57;;;;;;;5.13;2.20;;;25.40;99.90;;;;;;5033982;28;20202;-63
2022/07/03 10:05:25;;;;;;;4.70;2.50;;;25.60;99.90;;;;;;5033936;28;20650;-63
2022/07/03 10:07:54;;;;;;;2.70;1.80;;;25.40;99.90;;;;;;5033692;28;20280;-63
2022/07/03 10:10:22;;;;;;;3.77;1.77;;;25.60;99.90;;;;;;5033735;28;20671;-62
2022/07/03 10:12:50;;;;;;;3.60;1.93;;;25.80;99.90;;;;;;5034217;28;20293;-63
2022/07/03 10:15:19;;;;;;;4.37;2.23;;;25.90;99.90;;;;;;5034040;28;20314;-63
2022/07/03 10:17:49;;;;;;;4.43;1.83;;;25.70;99.90;;;;;;5033904;28;20288;-62
2022/07/03 10:20:20;;;;;;;6.17;1.73;;;25.70;99.90;;;;;;5033867;28;20316;-62
2022/07/03 10:22:49;;;;;;;1.97;1.53;;;25.80;99.90;;;;;;5034022;28;20626;-64
2022/07/03 10:25:17;;;;;;;3.50;1.73;;;25.80;99.90;;;;;;5034192;28;20207;-63
2022/07/03 10:27:45;;;;;;;4.07;1.83;;;25.70;99.90;;;;;;5033631;28;20279;-61
2022/07/03 10:30:14;;;;;;;2.77;1.77;;;25.70;99.90;;;;;;5033572;28;20207;-62
2022/07/03 10:32:44;;;;;;;2.47;1.70;;;25.80;99.90;;;;;;5033357;28;20214;-64
2022/07/03 10:35:12;;;;;;;4.30;1.70;;;25.80;99.90;;;;;;5033302;28;20676;-63
2022/07/03 10:37:46;;;;;;;5.67;2.17;;;25.80;99.90;;;;;;5032477;28;20400;-62
2022/07/03 10:46:14;;;;;;;2.50;1.60;;;25.90;99.90;;;;;;5032768;28;20213;-64
2022/07/03 10:49:03;;;;;;;3.83;1.83;;;25.80;99.90;;;;;;5032987;28;20226;-62
2022/07/03 10:51:32;;;;;;;2.43;1.67;;;25.90;99.90;;;;;;5033052;28;20206;-62
2022/07/03 10:54:15;;;;;;;7.23;1.83;;;25.70;99.90;;;;;;5032915;28;20206;-63
2022/07/03 10:57:13;;;;;;;2.10;1.50;;;25.90;99.90;;;;;;5032797;28;20268;-63
2022/07/03 11:00:20;;;;;;;1.63;1.37;;;26.10;99.90;;;;;;5032734;28;20321;-60
2022/07/03 11:02:49;;;;;;;3.27;1.77;;;26.20;99.90;;;;;;5033008;28;20210;-62
2022/07/03 11:05:29;;;;;;;4.33;1.40;;;26.50;99.90;;;;;;5018091;28;20811;-63
2022/07/03 11:08:18;;;;;;;7.57;3.20;;;26.70;99.90;;;;;;4990943;28;20239;-67
2022/07/03 11:11:54;;;;;;;4.27;1.80;;;26.70;99.90;;;;;;4992854;28;20204;-63
2022/07/03 11:13:32;;;;;;;4.07;1.40;;;26.70;99.90;;;;;;4992693;28;20207;-63
2022/07/03 11:15:58;;;;;;;3.10;1.70;;;26.70;99.90;;;;;;4992501;28;20286;-65
2022/07/03 11:18:28;;;;;;;3.90;1.70;;;26.70;99.90;;;;;;4992433;28;20766;-64
2022/07/03 11:21:25;;;;;;;5.07;1.53;;;26.70;99.90;;;;;;4992611;28;20227;-64
2022/07/03 11:24:29;;;;;;;3.10;1.47;;;26.40;99.90;;;;;;4992948;28;20682;-65
2022/07/03 11:27:17;;;;;;;4.37;1.30;;;26.20;99.90;;;;;;4991942;28;20258;-66
2022/07/03 11:29:50;;;;;;;2.33;1.30;;;26.20;99.90;;;;;;4979611;28;20934;-64
2022/07/03 11:32:57;;;;;;;4.30;1.20;;;26.30;99.90;;;;;;4992435;28;20678;-65
2022/07/03 11:35:51;;;;;;;2.47;1.57;;;26.50;99.90;;;;;;4992387;28;20214;-63
2022/07/03 11:38:21;;;;;;;2.13;1.53;;;26.60;99.90;;;;;;4992347;28;20231;-63
2022/07/03 11:40:51;;;;;;;2.40;1.50;;;26.20;99.90;;;;;;4992525;28;20265;-63
2022/07/03 11:43:19;;;;;;;2.63;1.40;;;26.00;99.90;;;;;;4992270;28;20230;-63
2022/07/03 11:45:48;;;;;;;2.47;1.47;;;25.90;99.90;;;;;;4992485;28;20204;-63
2022/07/03 11:48:17;;;;;;;3.47;1.43;;;25.90;99.90;;;;;;4991926;28;20230;-63
2022/07/03 11:50:45;;;;;;;2.10;1.50;;;26.00;99.90;;;;;;4992541;28;20212;-64
2022/07/03 11:53:26;;;;;;;2.43;1.27;;;26.00;99.90;;;;;;4992296;28;20342;-64
2022/07/03 11:55:58;;;;;;;4.27;1.50;;;26.30;99.90;;;;;;4992162;28;20562;-64
2022/07/03 11:58:42;;;;;;;2.33;1.23;;;26.30;99.90;;;;;;4991619;28;20263;-65
2022/07/03 12:01:09;;;;;;;5.63;1.43;;;26.30;99.90;;;;;;4992390;28;20227;-67
2022/07/03 12:03:36;;;;;;;2.23;1.20;;;26.30;99.90;;;;;;4992206;28;20239;-67
2022/07/03 12:06:03;;;;;;;16.27;10.03;;;26.50;99.90;;;;;;4991794;28;20211;-67
2022/07/03 12:08:31;;;;;;;5.20;1.30;;;26.60;99.90;;;;;;4991721;28;20762;-67
2022/07/03 12:11:03;;;;;;;5.77;1.80;;;26.60;99.90;;;;;;4992127;28;20218;-67
2022/07/03 12:13:33;;;;;;;4.00;1.40;;;26.70;99.90;;;;;;4991804;28;20235;-65
2022/07/03 12:16:09;;;;;;;1.73;1.10;;;26.60;99.90;;;;;;4991755;28;20211;-65
2022/07/03 12:18:50;;;;;;;5.80;1.60;;;26.60;99.90;;;;;;4992198;28;20232;-65
2022/07/03 12:21:17;;;;;;;3.40;1.57;;;26.60;99.90;;;;;;4995093;28;20235;-65
2022/07/03 12:23:46;;;;;;;1.80;1.10;;;26.50;99.90;;;;;;4996006;28;20254;-66
2022/07/03 12:26:13;;;;;;;1.73;1.00;;;26.10;99.90;;;;;;4995540;28;20207;-66
2022/07/03 12:28:42;;;;;;;2.73;1.20;;;26.20;99.90;;;;;;4995883;28;20235;-65
2022/07/03 12:31:09;;;;;;;3.30;1.37;;;26.20;99.90;;;;;;4996170;28;20258;-65
2022/07/03 12:33:36;;;;;;;1.83;1.03;;;26.50;99.90;;;;;;4996489;28;20258;-66
2022/07/03 12:36:07;;;;;;;4.40;1.40;;;26.50;99.90;;;;;;4995892;28;20728;-66
2022/07/03 12:38:34;;;;;;;5.83;1.27;;;26.60;99.90;;;;;;4995953;28;20800;-66
2022/07/03 12:41:05;;;;;;;2.60;1.10;;;26.70;99.90;;;;;;4996309;28;20239;-66
2022/07/03 12:43:38;;;;;;;3.80;1.57;;;26.90;99.90;;;;;;4996090;28;20267;-66
2022/07/03 12:46:19;;;;;;;3.17;1.10;;;26.90;99.90;;;;;;4996002;28;20290;-66
2022/07/03 12:48:47;;;;;;;3.33;1.33;;;26.40;99.90;;;;;;4995753;28;20231;-64
2022/07/03 12:51:14;;;;;;;2.83;1.10;;;26.50;99.90;;;;;;4996067;28;20203;-64
2022/07/03 12:53:41;;;;;;;1.57;1.10;;;26.70;99.90;;;;;;4995996;28;20212;-64
2022/07/03 12:56:10;;;;;;;2.50;1.10;;;26.80;99.90;;;;;;4995579;28;20238;-65
2022/07/03 13:01:27;;;;;;;3.00;1.50;;;27.40;99.90;;;;;;4995801;28;20580;-64
2022/07/03 13:03:54;;;;;;;5.23;1.30;;;27.60;99.90;;;;;;4995764;28;20257;-64
2022/07/03 13:06:22;;;;;;;1.93;1.20;;;27.40;99.90;;;;;;4995824;28;20215;-65
2022/07/03 13:08:54;;;;;;;4.83;1.20;;;27.20;99.90;;;;;;4995777;28;20232;-65
2022/07/03 13:11:29;;;;;;;5.03;1.40;;;27.20;99.90;;;;;;4995922;28;20207;-66
2022/07/03 13:14:07;;;;;;;1.40;1.20;;;26.70;99.90;;;;;;4995269;28;20215;-66
2022/07/03 13:16:40;;;;;;;4.13;1.03;;;26.40;99.90;;;;;;4995414;28;20207;-65